Jamestown Regional Airport
KJMS : now visible

Airfield :











YOU CAN JOIN US ON...

 
LOGIN :

Register | Disclaimer

   EN    FR    IT 

 









Legend :    VFR   Marginal VFR   IFR   Intensive IFR   Very Intensive IFR
Visi :
Ceiling :
>= 8 km
>= 3000ft
5 to 8 km
1000 to 3000 ft
1500m to 5 km
500 to 1000 ft
800 to 1500m
200 to 500 ft
< 800m
< 200 ft
Symbols :   Thunderstorms  Fog  Heavy snow  Heavy precipitations  Wind > 20 kt






- Airport Elevation : 1500 ft
- IATA code : JMS


KJMS - Jamestown Regional

CURRENT METAR :
  • 240556Z AUTO 32011KT 10SM CLR M11/M14 A3002 RMK AO2 SLP190 T11061144 11017 21111 400171117 51014

EXPIRED METARs :
  • 240456Z AUTO 33015KT 10SM CLR M09/M14 A3001 RMK AO2 PK WND 33027/0402 SLP188 T10891139
  • 240356Z AUTO 33019G27KT 10SM OVC110 M06/M11 A2999 RMK AO2 PK WND 33027/0356 SLP182 T10611111

TAF KJMS
Valid from the 24 at 06:00 until the 25 at 06:00 UTC


240541Z 2406/2506 34014G20KT P6SM SKC
FM241300 03007KT P6SM BKN080
FM241800 10007KT P6SM SCT035 BKN070
FM250200 11011KT P6SM BKN035
FM250400 11010KT P6SM VCSH BKN015
KZMP FIR / North America



MET'MAP, your aeronautical weather chart ! - Copyright ORBIFLY December 2007 - Disclaimer

ORBIFLY MET'MAP TEAM :

Programming & Development : Alexandra Zaïnal
Concept & original design : Baudouin d'Aumeries
Assistance for programming : Marc-Olivier Méhu
Technical & hardware support : Manuel Goepfert

Contact : metmap@orbifly.com




SOURCES & CREDITS :

   NOAA       Earth
Advisory